createdAt,value
2022-07-25T00:00:51.685Z,21.47
2022-07-25T00:03:19.354Z,21.52
2022-07-25T00:05:47.613Z,21.48
2022-07-25T00:08:15.335Z,21.48
2022-07-25T00:10:43.074Z,21.47
2022-07-25T00:13:10.795Z,21.51
2022-07-25T00:15:38.841Z,21.49
2022-07-25T00:18:06.562Z,21.56
2022-07-25T00:20:34.243Z,21.63
2022-07-25T00:23:01.993Z,21.59
2022-07-25T00:25:29.696Z,21.53
2022-07-25T00:27:57.444Z,21.50
2022-07-25T00:30:25.146Z,21.45
2022-07-25T00:32:53.623Z,21.42
2022-07-25T00:35:21.294Z,21.39
2022-07-25T00:37:49.072Z,21.36
2022-07-25T00:40:16.785Z,21.34
2022-07-25T00:42:44.488Z,21.38
2022-07-25T00:45:12.420Z,21.40
2022-07-25T00:47:40.260Z,21.42
2022-07-25T00:50:08.504Z,21.43
2022-07-25T00:52:36.547Z,21.37
2022-07-25T00:55:04.731Z,21.32
2022-07-25T00:57:32.475Z,21.26
2022-07-25T01:00:00.281Z,21.21
2022-07-25T01:02:28.088Z,21.16
2022-07-25T01:04:56.126Z,21.11
2022-07-25T01:07:24.472Z,21.05
2022-07-25T01:09:52.428Z,21.03
2022-07-25T01:12:20.801Z,20.98
2022-07-25T01:14:48.732Z,20.92
2022-07-25T01:17:16.443Z,20.86
2022-07-25T01:19:44.228Z,20.84
2022-07-25T01:22:11.948Z,20.74
2022-07-25T01:24:40.443Z,20.70
2022-07-25T01:27:08.220Z,20.65
2022-07-25T01:29:44.818Z,20.56
2022-07-25T01:32:13.589Z,20.53
2022-07-25T01:34:41.560Z,20.49
2022-07-25T01:37:09.223Z,20.47
2022-07-25T01:39:36.885Z,20.45
2022-07-25T01:42:04.751Z,20.46
2022-07-25T01:44:32.478Z,20.47
2022-07-25T01:47:00.136Z,20.46
2022-07-25T01:49:27.904Z,20.47
2022-07-25T01:51:55.600Z,20.49
2022-07-25T01:54:23.361Z,20.48
2022-07-25T01:56:52.266Z,20.45
2022-07-25T01:59:19.988Z,20.39
2022-07-25T02:01:47.804Z,20.38
2022-07-25T02:04:15.593Z,20.39
2022-07-25T02:06:43.330Z,20.36
2022-07-25T02:09:11.286Z,20.38
2022-07-25T02:11:39.090Z,20.38
2022-07-25T02:14:07.409Z,20.38
2022-07-25T02:16:35.440Z,20.40
2022-07-25T02:19:03.398Z,20.37
2022-07-25T02:21:31.310Z,20.36
2022-07-25T02:23:59.133Z,20.34
2022-07-25T02:26:26.902Z,20.34
2022-07-25T02:28:54.588Z,20.36
2022-07-25T02:31:22.367Z,20.32
2022-07-25T02:33:50.179Z,20.30
2022-07-25T02:36:18.161Z,20.26
2022-07-25T02:38:46.006Z,20.24
2022-07-25T02:41:13.723Z,20.22
2022-07-25T02:43:41.463Z,20.26
2022-07-25T02:46:09.178Z,20.22
2022-07-25T02:48:36.965Z,20.24
2022-07-25T02:51:04.863Z,20.21
2022-07-25T02:53:56.213Z,20.20
2022-07-25T02:56:21.173Z,20.15
2022-07-25T02:58:49.203Z,20.12
2022-07-25T03:01:16.992Z,20.09
2022-07-25T03:03:44.799Z,20.06
2022-07-25T03:06:12.527Z,20.03
2022-07-25T03:08:40.280Z,19.99
2022-07-25T03:11:08.038Z,19.97
2022-07-25T03:13:35.847Z,19.99
2022-07-25T03:16:03.622Z,20.01
2022-07-25T03:18:31.388Z,20.01
2022-07-25T03:20:59.078Z,20.00
2022-07-25T03:23:28.454Z,19.99
2022-07-25T03:25:56.945Z,19.97
2022-07-25T03:28:25.848Z,19.95
2022-07-25T03:30:54.326Z,19.94
2022-07-25T03:33:22.068Z,19.88
2022-07-25T03:35:49.852Z,19.88
2022-07-25T03:38:17.526Z,19.87
2022-07-25T03:40:45.555Z,19.89
2022-07-25T03:43:13.214Z,19.90
2022-07-25T03:45:41.001Z,19.89
2022-07-25T03:48:08.940Z,19.92
2022-07-25T03:50:36.695Z,19.93
2022-07-25T03:53:04.781Z,19.95
2022-07-25T03:55:32.485Z,19.93
2022-07-25T03:58:00.221Z,19.95
2022-07-25T04:00:28.103Z,19.90
2022-07-25T04:02:55.790Z,19.86
2022-07-25T04:05:23.466Z,19.90
2022-07-25T04:07:51.176Z,19.90
2022-07-25T04:10:18.848Z,19.86
2022-07-25T04:12:46.718Z,19.82
2022-07-25T04:15:14.498Z,19.79
2022-07-25T04:17:42.173Z,19.80
2022-07-25T04:20:11.049Z,19.79
2022-07-25T04:22:42.170Z,19.78
2022-07-25T04:25:12.488Z,19.78
2022-07-25T04:27:40.348Z,19.79
2022-07-25T04:30:08.557Z,19.80
2022-07-25T04:32:36.218Z,19.81
2022-07-25T04:35:03.903Z,19.81
2022-07-25T04:37:31.619Z,19.81
2022-07-25T04:39:59.470Z,19.79
2022-07-25T04:42:27.253Z,19.77
2022-07-25T04:44:55.329Z,19.78
2022-07-25T04:47:23.041Z,19.76
2022-07-25T04:49:50.740Z,19.74
2022-07-25T04:52:18.413Z,19.74
2022-07-25T04:54:46.133Z,19.75
2022-07-25T04:57:13.895Z,19.77
2022-07-25T04:59:41.642Z,19.80
2022-07-25T05:02:09.348Z,19.86
2022-07-25T05:04:37.054Z,19.85
2022-07-25T05:07:12.646Z,19.88
2022-07-25T05:09:41.035Z,19.88
2022-07-25T05:12:09.059Z,19.89
2022-07-25T05:14:36.870Z,19.91
2022-07-25T05:17:04.501Z,19.92
2022-07-25T05:19:32.217Z,19.94
2022-07-25T05:21:59.966Z,20.00
2022-07-25T05:24:28.086Z,20.06
2022-07-25T05:26:55.744Z,20.10
2022-07-25T05:29:23.408Z,20.14
2022-07-25T05:31:51.159Z,20.19
2022-07-25T05:34:18.871Z,20.23
2022-07-25T05:36:47.572Z,20.29
2022-07-25T05:39:15.440Z,20.36
2022-07-25T05:41:43.269Z,20.40
2022-07-25T05:44:11.026Z,20.48
2022-07-25T05:46:38.906Z,20.54
2022-07-25T05:49:06.702Z,20.60
2022-07-25T05:51:34.426Z,20.67
2022-07-25T05:54:02.114Z,20.73
2022-07-25T05:56:31.122Z,20.82
2022-07-25T05:58:58.795Z,20.89
2022-07-25T06:01:26.554Z,20.92
2022-07-25T06:03:54.348Z,20.98
2022-07-25T06:06:22.067Z,20.99
2022-07-25T06:08:49.753Z,21.04
2022-07-25T06:11:17.461Z,21.08
2022-07-25T06:13:45.383Z,21.08
2022-07-25T06:16:13.215Z,21.08
2022-07-25T06:18:40.959Z,21.09
2022-07-25T06:21:08.673Z,21.11
2022-07-25T06:23:36.338Z,21.14
2022-07-25T06:26:04.065Z,21.19
2022-07-25T06:28:31.776Z,21.25
2022-07-25T06:30:59.574Z,21.30
2022-07-25T06:33:27.289Z,21.35
2022-07-25T06:35:55.077Z,21.38
2022-07-25T06:38:22.750Z,21.47
2022-07-25T06:40:50.446Z,21.52
2022-07-25T06:43:18.232Z,21.60
2022-07-25T06:45:48.557Z,21.67
2022-07-25T06:48:17.290Z,21.74
2022-07-25T06:50:45.333Z,21.78
2022-07-25T06:53:13.498Z,21.85
2022-07-25T06:55:41.239Z,21.92
2022-07-25T06:58:09.113Z,22.01
2022-07-25T07:00:36.852Z,22.10
2022-07-25T07:03:05.016Z,22.19
2022-07-25T07:05:35.364Z,22.28
2022-07-25T07:08:03.895Z,22.36
2022-07-25T07:10:32.020Z,22.45
2022-07-25T07:13:08.120Z,22.53
2022-07-25T07:15:36.112Z,22.64
2022-07-25T07:18:03.971Z,22.72
2022-07-25T07:20:31.800Z,22.81
2022-07-25T07:22:59.468Z,22.90
2022-07-25T07:25:28.530Z,23.02
2022-07-25T07:27:56.522Z,23.10
2022-07-25T07:30:27.847Z,23.21
2022-07-25T07:33:01.505Z,23.32
2022-07-25T07:35:29.387Z,23.41
2022-07-25T07:38:02.582Z,23.50
2022-07-25T07:40:30.323Z,23.59
2022-07-25T07:42:59.586Z,23.68
2022-07-25T07:45:27.376Z,23.76
2022-07-25T07:47:56.171Z,23.83
2022-07-25T07:50:28.544Z,23.89
2022-07-25T07:52:57.649Z,23.98
2022-07-25T07:55:44.093Z,24.05
2022-07-25T07:58:17.404Z,24.13
2022-07-25T08:00:50.529Z,24.22
2022-07-25T08:03:22.826Z,24.30
2022-07-25T08:05:52.779Z,24.34
2022-07-25T08:08:21.522Z,24.38
2022-07-25T08:10:51.885Z,24.43
2022-07-25T08:13:31.409Z,24.47
2022-07-25T08:16:01.206Z,24.53
2022-07-25T08:18:30.940Z,24.59
2022-07-25T08:20:58.705Z,24.65
2022-07-25T08:23:28.772Z,24.73
2022-07-25T08:25:56.711Z,24.80
2022-07-25T08:28:24.506Z,24.87
2022-07-25T08:30:52.615Z,24.92
2022-07-25T08:33:20.491Z,25.00
2022-07-25T08:35:50.058Z,25.10
2022-07-25T08:38:17.855Z,25.17
2022-07-25T08:40:45.690Z,25.25
2022-07-25T08:43:15.221Z,25.34
2022-07-25T08:45:48.966Z,25.41
2022-07-25T08:48:22.407Z,25.45
2022-07-25T08:50:51.103Z,25.49
2022-07-25T08:53:36.095Z,25.57
2022-07-25T08:56:13.397Z,25.66
2022-07-25T08:58:44.601Z,25.76
2022-07-25T09:01:15.823Z,25.85
2022-07-25T09:03:44.617Z,25.91
2022-07-25T09:06:21.059Z,25.98
2022-07-25T09:09:00.630Z,26.03
2022-07-25T09:11:36.331Z,26.10
2022-07-25T09:14:13.124Z,26.17
2022-07-25T09:16:45.179Z,26.24
2022-07-25T09:19:15.996Z,26.31
2022-07-25T09:21:45.528Z,26.35
2022-07-25T09:24:18.797Z,26.41
2022-07-25T09:26:54.860Z,26.48
2022-07-25T09:29:24.433Z,26.54
2022-07-25T09:31:53.347Z,26.64
2022-07-25T09:34:35.590Z,26.70
2022-07-25T09:37:11.014Z,26.75
2022-07-25T09:39:46.427Z,26.83
2022-07-25T09:42:18.751Z,26.89
2022-07-25T09:45:02.173Z,26.96
2022-07-25T09:47:31.762Z,27.02
2022-07-25T09:49:59.664Z,27.09
2022-07-25T09:52:27.557Z,27.18
2022-07-25T09:54:57.985Z,27.28
2022-07-25T09:57:26.919Z,27.37
2022-07-25T09:59:55.216Z,27.44
2022-07-25T10:02:47.794Z,27.52
2022-07-25T10:05:48.031Z,27.66
2022-07-25T10:08:16.231Z,27.79
2022-07-25T10:10:44.097Z,27.92
2022-07-25T10:13:16.602Z,28.04
2022-07-25T10:15:46.400Z,28.20
2022-07-25T10:18:16.393Z,28.36
2022-07-25T10:20:46.665Z,28.49
2022-07-25T10:23:22.858Z,28.61
2022-07-25T10:26:17.304Z,28.74
2022-07-25T10:28:50.293Z,28.86
2022-07-25T10:31:25.577Z,28.95
2022-07-25T10:33:56.639Z,29.10
2022-07-25T10:36:25.820Z,29.22
2022-07-25T10:38:57.235Z,29.29
2022-07-25T10:41:27.438Z,29.41
2022-07-25T10:44:00.860Z,29.50
2022-07-25T10:46:31.836Z,29.57
2022-07-25T10:49:02.133Z,29.69
2022-07-25T10:51:36.001Z,29.77
2022-07-25T10:54:17.937Z,29.83
2022-07-25T10:57:16.229Z,29.93
2022-07-25T10:59:43.995Z,30.03
2022-07-25T11:02:19.261Z,30.10
2022-07-25T11:04:59.656Z,30.21
2022-07-25T11:07:29.802Z,30.30
2022-07-25T11:10:00.175Z,30.35
2022-07-25T11:12:28.940Z,30.42
2022-07-25T11:15:04.898Z,30.47
2022-07-25T11:17:33.593Z,30.49
2022-07-25T11:20:09.445Z,30.55
2022-07-25T11:22:37.291Z,30.61
2022-07-25T11:25:13.937Z,30.72
2022-07-25T11:27:41.777Z,30.84
2022-07-25T11:30:17.219Z,30.98
2022-07-25T11:32:54.434Z,31.07
2022-07-25T11:35:24.988Z,31.16
2022-07-25T11:37:54.699Z,31.30
2022-07-25T11:40:23.776Z,31.42
2022-07-25T11:42:54.438Z,31.43
2022-07-25T11:45:26.150Z,31.52
2022-07-25T11:48:14.928Z,31.60
2022-07-25T11:50:45.557Z,31.66
2022-07-25T11:53:17.481Z,31.76
2022-07-25T11:55:45.411Z,31.84
2022-07-25T11:58:14.911Z,31.91
2022-07-25T12:00:48.590Z,31.98
2022-07-25T12:03:20.656Z,32.06
2022-07-25T12:05:50.336Z,32.09
2022-07-25T12:08:20.338Z,32.12
2022-07-25T12:10:50.247Z,32.24
2022-07-25T12:13:29.916Z,32.31
2022-07-25T12:16:01.481Z,32.33
2022-07-25T12:18:29.845Z,32.38
2022-07-25T12:20:57.538Z,32.46
2022-07-25T12:23:25.335Z,32.51
2022-07-25T12:25:53.046Z,32.54
2022-07-25T12:28:20.825Z,32.61
2022-07-25T12:30:53.022Z,32.68
2022-07-25T12:33:23.893Z,32.74
2022-07-25T12:35:51.816Z,32.81
2022-07-25T12:38:19.473Z,32.84
2022-07-25T12:40:47.290Z,32.88
2022-07-25T12:43:15.007Z,32.90
2022-07-25T12:45:43.660Z,32.98
2022-07-25T12:48:13.862Z,33.05
2022-07-25T12:50:42.459Z,33.08
2022-07-25T12:53:10.529Z,33.08
2022-07-25T12:55:38.278Z,33.12
2022-07-25T12:58:06.179Z,33.13
2022-07-25T13:00:34.047Z,33.15
2022-07-25T13:03:01.913Z,33.09
2022-07-25T13:05:30.671Z,33.08
2022-07-25T13:07:58.446Z,33.04
2022-07-25T13:10:26.185Z,32.98
2022-07-25T13:12:53.923Z,32.91
2022-07-25T13:15:24.368Z,32.94
2022-07-25T13:17:52.150Z,32.90
2022-07-25T13:20:19.945Z,32.88
2022-07-25T13:22:47.762Z,32.81
2022-07-25T13:25:15.534Z,32.74
2022-07-25T13:27:43.209Z,32.72
2022-07-25T13:30:11.266Z,32.70
2022-07-25T13:32:39.226Z,32.70
2022-07-25T13:35:07.450Z,32.69
2022-07-25T13:37:35.365Z,32.76
2022-07-25T13:40:03.174Z,32.83
2022-07-25T13:42:31.009Z,32.79
2022-07-25T13:44:58.758Z,32.77
2022-07-25T13:47:30.316Z,32.84
2022-07-25T13:49:58.494Z,32.88
2022-07-25T13:52:26.352Z,32.94
2022-07-25T13:54:54.069Z,32.96
2022-07-25T13:57:21.864Z,32.95
2022-07-25T13:59:49.853Z,32.97
2022-07-25T14:02:17.695Z,33.02
2022-07-25T14:04:45.437Z,32.99
2022-07-25T14:07:13.157Z,32.97
2022-07-25T14:09:40.986Z,33.02
2022-07-25T14:12:08.855Z,33.07
2022-07-25T14:14:36.569Z,33.10
2022-07-25T14:17:04.367Z,33.15
2022-07-25T14:19:32.101Z,33.18
2022-07-25T14:21:59.884Z,33.17
2022-07-25T14:24:27.582Z,33.18
2022-07-25T14:26:56.227Z,33.18
2022-07-25T14:29:28.609Z,33.19
2022-07-25T14:31:58.614Z,33.21
2022-07-25T14:34:26.385Z,33.24
2022-07-25T14:36:54.127Z,33.26
2022-07-25T14:39:21.860Z,33.30
2022-07-25T14:41:49.819Z,33.32
2022-07-25T14:44:17.590Z,33.34
2022-07-25T14:46:45.581Z,33.30
2022-07-25T14:49:15.169Z,33.27
2022-07-25T14:51:44.040Z,33.26
2022-07-25T14:54:11.848Z,33.29
2022-07-25T14:56:40.810Z,33.29
2022-07-25T14:59:09.489Z,33.30
2022-07-25T15:01:39.177Z,33.34
2022-07-25T15:04:07.433Z,33.32
2022-07-25T15:06:35.654Z,33.38
2022-07-25T15:09:03.497Z,33.40
2022-07-25T15:11:31.512Z,33.33
2022-07-25T15:13:59.533Z,33.33
2022-07-25T15:16:27.314Z,33.37
2022-07-25T15:21:43.235Z,33.53
2022-07-25T15:24:10.939Z,33.43
2022-07-25T15:26:38.991Z,33.29
2022-07-25T15:29:11.424Z,33.08
2022-07-25T15:31:39.449Z,33.05
2022-07-25T15:34:07.204Z,33.05
2022-07-25T15:36:35.001Z,33.01
2022-07-25T15:39:02.948Z,33.01
2022-07-25T15:41:31.587Z,33.02
2022-07-25T15:44:00.848Z,33.02
2022-07-25T15:46:30.058Z,33.04
2022-07-25T15:48:58.975Z,33.04
2022-07-25T15:51:26.780Z,33.03
2022-07-25T15:53:54.555Z,33.05
2022-07-25T15:56:22.399Z,33.06
2022-07-25T15:58:50.502Z,33.07
2022-07-25T16:01:18.469Z,33.12
2022-07-25T16:03:46.575Z,33.15
2022-07-25T16:06:18.739Z,33.14
2022-07-25T16:08:46.687Z,33.13
2022-07-25T16:11:14.444Z,33.09
2022-07-25T16:13:43.022Z,33.04
2022-07-25T16:16:11.259Z,32.95
2022-07-25T16:18:39.005Z,32.86
2022-07-25T16:21:07.445Z,32.78
2022-07-25T16:23:39.670Z,32.69
2022-07-25T16:26:09.879Z,32.63
2022-07-25T16:28:37.777Z,32.54
2022-07-25T16:31:07.664Z,32.48
2022-07-25T16:33:35.564Z,32.43
2022-07-25T16:36:03.451Z,32.39
2022-07-25T16:38:31.314Z,32.40
2022-07-25T16:40:59.112Z,32.39
2022-07-25T16:43:26.970Z,32.40
2022-07-25T16:45:54.730Z,32.37
2022-07-25T16:48:22.810Z,32.32
2022-07-25T16:50:50.493Z,32.23
2022-07-25T16:53:18.201Z,32.15
2022-07-25T16:55:45.905Z,32.08
2022-07-25T16:58:13.722Z,32.01
2022-07-25T17:00:42.068Z,31.96
2022-07-25T17:03:09.730Z,31.90
2022-07-25T17:05:37.482Z,31.85
2022-07-25T17:08:05.547Z,31.79
2022-07-25T17:10:33.264Z,31.75
2022-07-25T17:13:00.940Z,31.73
2022-07-25T17:15:28.672Z,31.72
2022-07-25T17:17:56.359Z,31.75
2022-07-25T17:20:24.155Z,31.78
2022-07-25T17:22:51.914Z,31.78
2022-07-25T17:25:19.637Z,31.80
2022-07-25T17:27:47.416Z,31.82
2022-07-25T17:30:15.198Z,31.81
2022-07-25T17:32:43.086Z,31.82
2022-07-25T17:35:11.005Z,31.81
2022-07-25T17:37:38.891Z,31.79
2022-07-25T17:40:07.187Z,31.77
2022-07-25T17:42:35.132Z,31.73
2022-07-25T17:45:06.857Z,31.69
2022-07-25T17:47:36.177Z,31.64
2022-07-25T17:50:05.391Z,31.58
2022-07-25T17:52:33.357Z,31.54
2022-07-25T17:55:01.124Z,31.49
2022-07-25T17:57:29.351Z,31.45
2022-07-25T17:59:58.148Z,31.44
2022-07-25T18:02:25.958Z,31.40
2022-07-25T18:04:53.791Z,31.38
2022-07-25T18:07:21.783Z,31.34
2022-07-25T18:09:49.719Z,31.31
2022-07-25T18:12:17.458Z,31.26
2022-07-25T18:14:45.221Z,31.21
2022-07-25T18:17:12.983Z,31.12
2022-07-25T18:19:40.775Z,31.04
2022-07-25T18:22:08.534Z,30.92
2022-07-25T18:24:36.446Z,30.85
2022-07-25T18:27:05.671Z,30.77
2022-07-25T18:29:34.027Z,30.68
2022-07-25T18:32:02.816Z,30.59
2022-07-25T18:34:32.182Z,30.52
2022-07-25T18:37:00.318Z,30.37
2022-07-25T18:39:28.051Z,30.30
2022-07-25T18:41:55.780Z,30.21
2022-07-25T18:44:23.595Z,30.14
2022-07-25T18:46:51.685Z,30.02
2022-07-25T18:49:19.620Z,29.96
2022-07-25T18:51:47.449Z,29.90
2022-07-25T18:54:15.531Z,29.83
2022-07-25T18:56:44.270Z,29.72
2022-07-25T18:59:12.019Z,29.62
2022-07-25T19:01:39.775Z,29.52
2022-07-25T19:04:07.964Z,29.49
2022-07-25T19:06:35.871Z,29.46
2022-07-25T19:09:05.016Z,29.42
2022-07-25T19:11:35.110Z,29.38
2022-07-25T19:14:05.644Z,29.33
2022-07-25T19:16:33.891Z,29.31
2022-07-25T19:19:02.107Z,29.27
2022-07-25T19:21:29.846Z,29.24
2022-07-25T19:23:57.562Z,29.23
2022-07-25T19:26:25.706Z,29.22
2022-07-25T19:28:53.423Z,29.20
2022-07-25T19:31:21.557Z,29.15
2022-07-25T19:33:50.366Z,29.13
2022-07-25T19:36:18.189Z,29.09
2022-07-25T19:38:45.899Z,29.04
2022-07-25T19:41:13.927Z,29.00
2022-07-25T19:43:41.722Z,28.96
2022-07-25T19:46:09.525Z,28.93
2022-07-25T19:48:37.428Z,28.88
2022-07-25T19:51:05.424Z,28.83
2022-07-25T19:53:37.187Z,28.82
2022-07-25T19:56:05.486Z,28.77
2022-07-25T19:58:38.416Z,28.69
2022-07-25T20:01:06.814Z,28.64
2022-07-25T20:03:35.527Z,28.59
2022-07-25T20:06:07.852Z,28.46
2022-07-25T20:08:36.607Z,28.33
2022-07-25T20:11:04.588Z,28.25
2022-07-25T20:13:32.443Z,28.18
2022-07-25T20:16:00.373Z,28.11
2022-07-25T20:18:28.221Z,28.04
2022-07-25T20:20:55.976Z,27.97
2022-07-25T20:23:24.555Z,27.83
2022-07-25T20:25:52.379Z,27.71
2022-07-25T20:28:20.215Z,27.57
2022-07-25T20:30:47.980Z,27.51
2022-07-25T20:33:15.731Z,27.39
2022-07-25T20:35:43.501Z,27.33
2022-07-25T20:38:11.192Z,27.25
2022-07-25T20:40:48.060Z,27.20
2022-07-25T20:43:17.164Z,27.14
2022-07-25T20:45:45.743Z,27.07
2022-07-25T20:48:15.378Z,26.99
2022-07-25T20:50:44.468Z,26.94
2022-07-25T20:53:12.374Z,26.88
2022-07-25T20:55:40.106Z,26.84
2022-07-25T20:58:07.890Z,26.79
2022-07-25T21:00:35.720Z,26.75
2022-07-25T21:03:03.842Z,26.71
2022-07-25T21:05:31.727Z,26.67
2022-07-25T21:07:59.463Z,26.63
2022-07-25T21:10:27.464Z,26.61
2022-07-25T21:12:56.985Z,26.59
2022-07-25T21:15:25.579Z,26.54
2022-07-25T21:17:53.342Z,26.50
2022-07-25T21:20:21.190Z,26.46
2022-07-25T21:22:49.226Z,26.43
2022-07-25T21:25:16.906Z,26.41
2022-07-25T21:27:44.844Z,26.37
2022-07-25T21:30:13.306Z,26.32
2022-07-25T21:32:41.803Z,26.27
2022-07-25T21:35:10.015Z,26.25
2022-07-25T21:37:37.807Z,26.22
2022-07-25T21:40:06.100Z,26.17
2022-07-25T21:42:33.852Z,26.15
2022-07-25T21:45:01.596Z,26.07
2022-07-25T21:47:29.500Z,26.03
2022-07-25T21:50:21.362Z,26.00
2022-07-25T21:52:52.995Z,25.97
2022-07-25T21:55:21.213Z,25.92
2022-07-25T21:57:49.330Z,25.89
2022-07-25T22:00:17.570Z,25.85
2022-07-25T22:02:47.334Z,25.80
2022-07-25T22:05:16.541Z,25.76
2022-07-25T22:07:47.269Z,25.70
2022-07-25T22:10:16.507Z,25.68
2022-07-25T22:12:44.671Z,25.67
2022-07-25T22:15:14.071Z,25.64
2022-07-25T22:17:48.232Z,25.62
2022-07-25T22:20:18.225Z,25.60
2022-07-25T22:22:47.286Z,25.58
2022-07-25T22:25:15.024Z,25.57
2022-07-25T22:27:42.870Z,25.54
2022-07-25T22:30:17.993Z,25.50
2022-07-25T22:32:47.192Z,25.50
2022-07-25T22:35:15.239Z,25.49
2022-07-25T22:37:42.943Z,25.46
2022-07-25T22:40:11.047Z,25.46
2022-07-25T22:42:38.769Z,25.46
2022-07-25T22:45:07.066Z,25.45
2022-07-25T22:47:34.757Z,25.46
2022-07-25T22:50:02.418Z,25.46
2022-07-25T22:52:30.132Z,25.44
2022-07-25T22:54:57.991Z,25.43
2022-07-25T22:57:25.701Z,25.41
2022-07-25T22:59:53.426Z,25.39
2022-07-25T23:02:21.100Z,25.35
2022-07-25T23:04:48.761Z,25.31
2022-07-25T23:07:16.422Z,25.27
2022-07-25T23:09:44.290Z,25.25
2022-07-25T23:12:12.384Z,25.21
2022-07-25T23:14:40.127Z,25.18
2022-07-25T23:17:21.143Z,25.15
2022-07-25T23:19:50.525Z,25.13
2022-07-25T23:22:19.271Z,25.11
2022-07-25T23:24:47.359Z,25.06
2022-07-25T23:27:16.005Z,25.03
2022-07-25T23:29:44.261Z,25.02
2022-07-25T23:32:12.036Z,24.98
2022-07-25T23:34:40.017Z,24.98
2022-07-25T23:37:07.852Z,24.95
2022-07-25T23:39:35.617Z,24.93
2022-07-25T23:42:04.630Z,24.93
2022-07-25T23:44:32.391Z,24.91
2022-07-25T23:47:01.578Z,24.91
2022-07-25T23:49:30.023Z,24.90
2022-07-25T23:51:58.308Z,24.89
2022-07-25T23:54:26.077Z,24.86
2022-07-25T23:56:54.549Z,24.85
2022-07-25T23:59:22.365Z,24.81
